Time;durP1;ratioP1;P1;durP2;ratioP2;P2;SDS_P1;SDS_P2;PMS_P1;PMS_P2;Temp;Humidity;BMP_temperature;BMP_pressure;BME280_temperature;BME280_humidity;BME280_pressure;Samples;Min_cycle;Max_cycle;Signal;HPM_P1;HPM_P2
2023/02/27 00:01:44;;;;;;;6.97;5.80;;;-0.40;99.90;;;;;;5086885;27;20480;-68
2023/02/27 00:04:12;;;;;;;6.80;6.07;;;-0.40;99.90;;;;;;5083248;27;20883;-70
2023/02/27 00:06:40;;;;;;;8.83;6.90;;;-0.40;99.90;;;;;;5075003;27;20491;-69
2023/02/27 00:09:08;;;;;;;6.90;6.20;;;-0.40;99.90;;;;;;5074820;27;20475;-68
2023/02/27 00:11:38;;;;;;;8.00;6.20;;;-0.40;99.90;;;;;;5077705;27;20488;-68
2023/02/27 00:14:06;;;;;;;8.07;5.97;;;-0.40;99.90;;;;;;5088461;27;20475;-68
2023/02/27 00:16:34;;;;;;;6.10;5.50;;;-0.40;99.90;;;;;;5076412;28;20496;-69
2023/02/27 00:19:03;;;;;;;7.03;5.93;;;-0.40;99.90;;;;;;5077983;27;20470;-68
2023/02/27 00:21:32;;;;;;;8.27;6.10;;;-0.40;99.90;;;;;;5078305;27;20483;-68
2023/02/27 00:24:03;;;;;;;9.50;6.37;;;-0.40;99.90;;;;;;5075777;27;20467;-69
2023/02/27 00:26:31;;;;;;;7.33;5.57;;;-0.50;99.90;;;;;;5084428;28;20495;-67
2023/02/27 00:29:00;;;;;;;7.47;6.40;;;-0.50;99.90;;;;;;5084526;28;20962;-68
2023/02/27 00:31:28;;;;;;;7.47;6.00;;;-0.50;99.90;;;;;;5099904;28;20488;-68
2023/02/27 00:33:56;;;;;;;7.53;6.00;;;-0.60;99.90;;;;;;5081280;28;20474;-68
2023/02/27 00:36:24;;;;;;;7.47;6.00;;;-0.60;99.90;;;;;;5074383;27;21080;-70
2023/02/27 00:38:52;;;;;;;7.73;5.90;;;-0.60;99.90;;;;;;5081013;27;20456;-69
2023/02/27 00:41:20;;;;;;;10.43;6.47;;;-0.60;99.90;;;;;;5074669;27;20524;-69
2023/02/27 00:43:48;;;;;;;7.80;6.10;;;-0.60;99.90;;;;;;5092459;28;21476;-69
2023/02/27 00:46:18;;;;;;;7.53;6.10;;;-0.60;99.90;;;;;;5087411;28;20480;-69
2023/02/27 00:48:46;;;;;;;6.77;6.17;;;-0.60;99.90;;;;;;5089035;28;20475;-69
2023/02/27 00:51:14;;;;;;;7.37;6.37;;;-0.60;99.90;;;;;;5093781;28;20487;-68
2023/02/27 00:53:42;;;;;;;6.30;5.67;;;-0.60;99.90;;;;;;5084582;27;20476;-69
2023/02/27 00:56:10;;;;;;;9.60;6.20;;;-0.60;99.90;;;;;;5080271;28;20562;-69
2023/02/27 00:58:38;;;;;;;7.53;5.73;;;-0.60;99.90;;;;;;5076401;27;20492;-69
2023/02/27 01:01:06;;;;;;;6.80;6.10;;;-0.60;99.90;;;;;;5090912;27;20507;-70
2023/02/27 01:03:35;;;;;;;6.93;6.07;;;-0.70;99.90;;;;;;5083546;28;20558;-70
2023/02/27 01:06:03;;;;;;;6.33;5.50;;;-0.70;99.90;;;;;;5075129;27;20496;-69
2023/02/27 01:08:31;;;;;;;6.57;5.80;;;-0.70;99.90;;;;;;5075901;27;20483;-69
2023/02/27 01:10:59;;;;;;;6.27;5.43;;;-0.70;99.90;;;;;;5075785;27;20495;-70
2023/02/27 01:13:27;;;;;;;6.03;5.30;;;-0.70;99.90;;;;;;5083851;27;20463;-68
2023/02/27 01:15:55;;;;;;;6.13;5.50;;;-0.70;99.90;;;;;;5088495;28;20463;-69
2023/02/27 01:18:23;;;;;;;6.70;4.97;;;-0.80;99.90;;;;;;5081949;28;20484;-68
2023/02/27 01:20:53;;;;;;;6.10;5.50;;;-0.80;99.90;;;;;;5082191;27;20491;-68
2023/02/27 01:23:21;;;;;;;5.77;5.17;;;-0.80;99.90;;;;;;5075743;27;20488;-68
2023/02/27 01:25:49;;;;;;;6.73;6.03;;;-0.80;99.90;;;;;;5081105;27;20967;-69
2023/02/27 01:28:17;;;;;;;6.67;5.70;;;-0.80;99.90;;;;;;5077450;27;21798;-70
2023/02/27 01:30:45;;;;;;;6.20;4.73;;;-0.90;99.90;;;;;;5080272;28;20491;-70
2023/02/27 01:33:13;;;;;;;6.60;5.90;;;-0.90;99.90;;;;;;5086064;28;20506;-68
2023/02/27 01:35:41;;;;;;;6.80;5.63;;;-0.90;99.90;;;;;;5085825;27;20468;-68
2023/02/27 01:38:10;;;;;;;6.77;6.00;;;-0.90;99.90;;;;;;5067876;27;20515;-69
2023/02/27 01:40:41;;;;;;;7.70;5.67;;;-1.00;99.90;;;;;;5079109;27;21172;-68
2023/02/27 01:43:15;;;;;;;7.00;5.60;;;-1.00;99.90;;;;;;5070050;27;20464;-69
2023/02/27 01:45:46;;;;;;;6.40;5.80;;;-1.00;99.90;;;;;;5087719;27;20986;-67
2023/02/27 01:48:18;;;;;;;6.50;5.53;;;-1.00;99.90;;;;;;5077613;27;20491;-67
2023/02/27 01:50:50;;;;;;;6.60;5.73;;;-1.00;99.90;;;;;;5077263;27;20488;-68
2023/02/27 01:53:23;;;;;;;6.57;5.73;;;-1.00;99.90;;;;;;5054371;27;20988;-68
2023/02/27 01:55:53;;;;;;;6.60;5.70;;;-1.00;99.90;;;;;;5076626;27;20476;-69
2023/02/27 01:58:21;;;;;;;7.13;6.40;;;-1.00;99.90;;;;;;5083760;27;20495;-68
2023/02/27 02:00:49;;;;;;;7.30;5.87;;;-1.10;99.90;;;;;;5079005;28;20518;-68
2023/02/27 02:03:24;;;;;;;8.83;5.77;;;-1.10;99.90;;;;;;5078905;28;20838;-68
2023/02/27 02:05:55;;;;;;;6.77;5.63;;;-1.10;99.90;;;;;;5080234;28;21113;-68
2023/02/27 02:08:27;;;;;;;6.80;6.10;;;-1.10;99.90;;;;;;5075846;27;21276;-68
2023/02/27 02:10:56;;;;;;;7.77;5.20;;;-1.10;99.90;;;;;;5078482;27;20493;-68
2023/02/27 02:13:25;;;;;;;5.30;4.80;;;-1.10;99.90;;;;;;5090705;28;20464;-68
2023/02/27 02:16:10;;;;;;;6.30;5.40;;;-1.10;99.90;;;;;;5086170;27;20460;-68
2023/02/27 02:18:48;;;;;;;6.43;5.43;;;-1.10;99.90;;;;;;5091146;27;20487;-68
2023/02/27 02:21:47;;;;;;;6.50;5.90;;;-1.10;99.90;;;;;;5077310;28;20506;-69
2023/02/27 02:24:47;;;;;;;6.57;5.60;;;-1.20;99.90;;;;;;5071541;28;20460;-69
2023/02/27 02:27:28;;;;;;;6.67;5.20;;;-1.20;99.90;;;;;;5075250;27;20488;-69
2023/02/27 02:30:46;;;;;;;7.70;5.70;;;-1.20;99.90;;;;;;5076409;27;20503;-69
2023/02/27 02:33:50;;;;;;;7.70;5.90;;;-1.20;99.90;;;;;;5079687;27;20460;-68
2023/02/27 02:37:00;;;;;;;5.70;5.10;;;-1.20;99.90;;;;;;5084268;27;20478;-68
2023/02/27 02:39:40;;;;;;;6.00;5.40;;;-1.20;99.90;;;;;;5086343;27;20468;-68
2023/02/27 02:42:16;;;;;;;6.57;5.90;;;-1.20;99.90;;;;;;5081054;28;20920;-68
2023/02/27 02:44:53;;;;;;;7.40;5.33;;;-1.30;99.90;;;;;;5092345;28;20871;-68
2023/02/27 02:47:30;;;;;;;6.53;5.47;;;-1.30;99.90;;;;;;5093304;28;20518;-68
2023/02/27 02:50:04;;;;;;;6.20;5.57;;;-1.30;99.90;;;;;;5092775;28;21371;-68
2023/02/27 02:52:43;;;;;;;5.93;5.00;;;-1.30;99.90;;;;;;5099681;28;20472;-68
2023/02/27 02:55:18;;;;;;;5.73;5.27;;;-1.30;99.90;;;;;;5093912;28;20471;-68
2023/02/27 02:57:50;;;;;;;5.43;4.90;;;-1.30;99.90;;;;;;5098471;27;20479;-68
2023/02/27 03:00:22;;;;;;;5.97;5.30;;;-1.30;99.90;;;;;;5096369;28;20487;-68
2023/02/27 03:02:54;;;;;;;5.87;5.10;;;-1.30;99.90;;;;;;5096076;28;20472;-68
2023/02/27 03:05:27;;;;;;;5.90;5.30;;;-1.30;99.90;;;;;;5097675;28;20469;-68
2023/02/27 03:08:01;;;;;;;8.17;5.20;;;-1.30;99.90;;;;;;5098275;28;20487;-68
2023/02/27 03:10:33;;;;;;;6.30;5.23;;;-1.30;99.90;;;;;;5093217;28;20488;-67
2023/02/27 03:13:06;;;;;;;5.97;5.47;;;-1.30;99.90;;;;;;5084890;28;21132;-67
2023/02/27 03:15:40;;;;;;;5.57;4.63;;;-1.30;99.90;;;;;;5084211;28;20501;-68
2023/02/27 03:18:17;;;;;;;7.63;5.50;;;-1.30;99.90;;;;;;5073700;28;20472;-68
2023/02/27 03:20:51;;;;;;;6.20;5.10;;;-1.30;99.90;;;;;;5082745;28;20506;-68
2023/02/27 03:23:25;;;;;;;7.23;5.20;;;-1.40;99.90;;;;;;5078050;28;20472;-70
2023/02/27 03:25:56;;;;;;;6.37;5.60;;;-1.40;99.90;;;;;;5078394;28;20464;-70
2023/02/27 03:28:30;;;;;;;4.80;4.40;;;-1.40;99.90;;;;;;5079418;28;20503;-69
2023/02/27 03:31:04;;;;;;;9.67;5.33;;;-1.40;99.90;;;;;;5072740;28;20499;-69
2023/02/27 03:33:38;;;;;;;5.60;5.10;;;-1.40;99.90;;;;;;5074016;28;20946;-68
2023/02/27 03:36:10;;;;;;;5.70;4.90;;;-1.40;99.90;;;;;;5080178;28;20559;-70
2023/02/27 03:38:43;;;;;;;6.47;5.20;;;-1.40;99.90;;;;;;5083038;28;20487;-68
2023/02/27 03:41:20;;;;;;;6.10;5.20;;;-1.50;99.90;;;;;;5090319;28;20491;-68
2023/02/27 03:43:56;;;;;;;6.03;4.90;;;-1.50;99.90;;;;;;5070464;28;20471;-69
2023/02/27 03:46:26;;;;;;;5.60;5.03;;;-1.50;99.90;;;;;;5079290;28;20479;-68
2023/02/27 03:48:54;;;;;;;5.87;5.30;;;-1.50;99.90;;;;;;5074541;28;20635;-69
2023/02/27 03:51:24;;;;;;;7.53;5.20;;;-1.50;99.90;;;;;;5093170;28;20969;-68
2023/02/27 03:54:00;;;;;;;7.10;5.43;;;-1.50;99.90;;;;;;5086444;28;20488;-70
2023/02/27 03:56:35;;;;;;;7.70;5.67;;;-1.50;99.90;;;;;;5081237;28;20482;-68
2023/02/27 03:59:03;;;;;;;6.07;5.17;;;-1.50;99.90;;;;;;5076976;28;20513;-69
2023/02/27 04:01:31;;;;;;;6.07;5.47;;;-1.50;99.90;;;;;;5079608;28;21130;-70
2023/02/27 04:04:04;;;;;;;6.27;5.37;;;-1.50;99.90;;;;;;5082178;28;20993;-70
2023/02/27 04:09:30;;;;;;;5.80;4.47;;;-1.50;99.90;;;;;;5067756;28;21013;-70
2023/02/27 04:12:24;;;;;;;6.13;5.00;;;-1.50;99.90;;;;;;5074084;28;20479;-68
2023/02/27 04:15:03;;;;;;;4.97;4.47;;;-1.60;99.90;;;;;;5089191;28;20460;-68
2023/02/27 04:17:38;;;;;;;5.70;4.90;;;-1.60;99.90;;;;;;5071201;28;20479;-69
2023/02/27 04:20:27;;;;;;;6.57;4.90;;;-1.60;99.90;;;;;;5078516;28;20501;-68
2023/02/27 04:23:02;;;;;;;4.93;4.53;;;-1.60;99.90;;;;;;5081228;28;20479;-70
2023/02/27 04:25:52;;;;;;;5.37;4.87;;;-1.60;99.90;;;;;;5086285;28;20474;-69
2023/02/27 04:28:27;;;;;;;5.70;5.10;;;-1.60;99.90;;;;;;5076364;28;20485;-68
2023/02/27 04:31:04;;;;;;;6.20;5.60;;;-1.60;99.90;;;;;;5079529;27;20790;-70
2023/02/27 04:33:42;;;;;;;6.03;5.27;;;-1.60;99.90;;;;;;5080263;27;20555;-68
2023/02/27 04:36:15;;;;;;;7.93;5.23;;;-1.60;99.90;;;;;;5078857;27;20827;-70
2023/02/27 04:38:49;;;;;;;9.23;5.70;;;-1.60;99.90;;;;;;5083121;27;20476;-69
2023/02/27 04:41:21;;;;;;;6.80;5.10;;;-1.60;99.90;;;;;;5092852;28;20495;-68
2023/02/27 04:43:53;;;;;;;6.63;4.73;;;-1.70;99.90;;;;;;5099417;28;20474;-69
2023/02/27 04:46:24;;;;;;;5.73;4.57;;;-1.70;99.90;;;;;;5096224;27;20471;-69
2023/02/27 04:48:59;;;;;;;6.50;5.47;;;-1.70;99.90;;;;;;5093069;28;21072;-69
2023/02/27 04:51:32;;;;;;;5.40;4.90;;;-1.70;99.90;;;;;;5099483;28;20547;-69
2023/02/27 04:54:04;;;;;;;5.10;4.60;;;-1.70;99.90;;;;;;5099385;28;20501;-68
2023/02/27 04:56:35;;;;;;;6.50;5.40;;;-1.70;99.90;;;;;;5095179;27;20475;-69
2023/02/27 04:59:09;;;;;;;5.47;4.80;;;-1.70;99.90;;;;;;5100346;28;20460;-68
2023/02/27 05:01:41;;;;;;;6.60;5.43;;;-1.70;99.90;;;;;;5097145;28;21072;-68
2023/02/27 05:04:13;;;;;;;5.47;4.90;;;-1.70;99.90;;;;;;5098954;28;20897;-69
2023/02/27 05:06:44;;;;;;;5.97;5.37;;;-1.70;99.90;;;;;;5096385;28;20576;-69
2023/02/27 05:09:19;;;;;;;5.80;4.67;;;-1.70;99.90;;;;;;5099977;28;20491;-68
2023/02/27 05:11:52;;;;;;;5.63;5.10;;;-1.70;99.90;;;;;;5096127;28;20661;-68
2023/02/27 05:14:27;;;;;;;6.63;5.63;;;-1.70;99.90;;;;;;5087790;28;20469;-68
2023/02/27 05:17:02;;;;;;;6.63;5.50;;;-1.70;99.90;;;;;;5071600;27;20509;-69
2023/02/27 05:19:32;;;;;;;6.23;5.50;;;-1.80;99.90;;;;;;5073116;28;20499;-68
2023/02/27 05:22:11;;;;;;;6.00;5.40;;;-1.70;99.90;;;;;;5076333;27;20487;-67
2023/02/27 05:24:48;;;;;;;8.03;5.13;;;-1.80;99.90;;;;;;5078668;28;20479;-68
2023/02/27 05:27:22;;;;;;;6.23;5.63;;;-1.80;99.90;;;;;;5071326;27;20552;-68
2023/02/27 05:29:53;;;;;;;8.63;5.20;;;-1.80;99.90;;;;;;5079632;27;21010;-68
2023/02/27 05:32:33;;;;;;;6.07;5.40;;;-1.80;99.90;;;;;;5075009;27;20480;-69
2023/02/27 05:35:11;;;;;;;7.67;5.77;;;-1.80;99.90;;;;;;5078317;28;20527;-69
2023/02/27 05:37:44;;;;;;;5.90;5.40;;;-1.80;99.90;;;;;;5071096;27;20483;-69
2023/02/27 05:40:17;;;;;;;9.83;5.80;;;-1.80;99.90;;;;;;5067495;27;20484;-70
2023/02/27 05:42:49;;;;;;;6.57;5.70;;;-1.80;99.90;;;;;;5070106;27;20479;-68
2023/02/27 05:45:23;;;;;;;6.43;5.33;;;-1.80;99.90;;;;;;5085095;28;21045;-68
2023/02/27 05:47:55;;;;;;;6.03;5.30;;;-1.80;99.90;;;;;;5082032;27;20487;-68
2023/02/27 05:50:27;;;;;;;6.03;5.43;;;-1.80;99.90;;;;;;5068684;27;20479;-69
2023/02/27 05:52:59;;;;;;;6.80;5.80;;;-1.80;99.90;;;;;;5075671;27;20471;-69
2023/02/27 05:55:32;;;;;;;6.10;5.33;;;-1.80;99.90;;;;;;5079023;27;20476;-70
2023/02/27 05:58:08;;;;;;;6.60;5.80;;;-1.80;99.90;;;;;;5069687;27;20496;-69
2023/02/27 06:00:41;;;;;;;7.20;6.00;;;-1.80;99.90;;;;;;5082926;28;20505;-69
2023/02/27 06:03:09;;;;;;;7.30;5.83;;;-1.80;99.90;;;;;;5074926;28;20471;-68
2023/02/27 06:05:39;;;;;;;5.60;5.00;;;-1.80;99.90;;;;;;5089736;27;20550;-69
2023/02/27 06:08:07;;;;;;;7.10;6.17;;;-1.80;99.90;;;;;;5091905;27;20490;-68
2023/02/27 06:10:35;;;;;;;6.20;5.60;;;-1.80;99.90;;;;;;5092742;28;20492;-69
2023/02/27 06:13:03;;;;;;;7.43;6.17;;;-1.80;99.90;;;;;;5090640;28;20494;-68
2023/02/27 06:15:31;;;;;;;6.50;5.70;;;-1.80;99.90;;;;;;5088260;28;20472;-69
2023/02/27 06:18:01;;;;;;;6.93;6.20;;;-1.80;99.90;;;;;;5074479;28;20484;-68
2023/02/27 06:20:28;;;;;;;7.53;6.03;;;-1.90;99.90;;;;;;5088167;27;20491;-70
2023/02/27 06:22:56;;;;;;;7.13;6.43;;;-1.90;99.90;;;;;;5073346;27;20759;-70
2023/02/27 06:25:24;;;;;;;6.17;5.57;;;-1.80;99.90;;;;;;5077665;27;20466;-70
2023/02/27 06:27:52;;;;;;;10.20;6.60;;;-1.80;99.90;;;;;;5075298;27;21005;-68
2023/02/27 06:30:20;;;;;;;9.97;6.27;;;-1.80;99.90;;;;;;5073487;27;20487;-67
2023/02/27 06:32:48;;;;;;;8.20;6.50;;;-1.80;99.90;;;;;;5089143;28;20476;-69
2023/02/27 06:35:18;;;;;;;7.17;6.33;;;-1.80;99.90;;;;;;5091268;28;20476;-68
2023/02/27 06:37:46;;;;;;;9.13;6.20;;;-1.80;99.90;;;;;;5085917;27;21017;-68
2023/02/27 06:40:14;;;;;;;7.30;6.50;;;-1.80;99.90;;;;;;5067314;27;21967;-69
2023/02/27 06:42:43;;;;;;;8.17;6.60;;;-1.80;99.90;;;;;;5052815;28;20476;-71
2023/02/27 06:45:13;;;;;;;7.63;6.40;;;-1.80;99.90;;;;;;5035524;27;20460;-70
2023/02/27 06:47:41;;;;;;;8.60;7.00;;;-1.80;99.90;;;;;;5059784;27;20956;-70
2023/02/27 06:50:14;;;;;;;7.70;6.70;;;-1.70;99.90;;;;;;5076131;28;21029;-68
2023/02/27 06:52:44;;;;;;;7.10;6.50;;;-1.70;99.90;;;;;;5089545;28;20605;-68
2023/02/27 06:55:12;;;;;;;7.57;6.87;;;-1.70;99.90;;;;;;5064223;28;20468;-71
2023/02/27 06:57:39;;;;;;;8.33;7.17;;;-1.70;99.90;;;;;;5070603;28;20488;-68
2023/02/27 07:00:10;;;;;;;8.20;7.13;;;-1.70;99.90;;;;;;5073363;28;20532;-69
2023/02/27 07:02:38;;;;;;;8.30;6.90;;;-1.60;99.90;;;;;;5076045;28;20464;-68
2023/02/27 07:05:07;;;;;;;7.73;7.03;;;-1.60;99.90;;;;;;5086642;28;21722;-69
2023/02/27 07:07:36;;;;;;;8.87;7.20;;;-1.50;99.90;;;;;;5086284;28;20554;-68
2023/02/27 07:10:11;;;;;;;10.30;8.50;;;-1.40;99.90;;;;;;5088556;28;20519;-68
2023/02/27 07:12:39;;;;;;;12.50;8.90;;;-1.40;99.90;;;;;;5081758;28;20468;-70
2023/02/27 07:15:08;;;;;;;13.10;8.73;;;-1.40;99.90;;;;;;5079437;27;20475;-68
2023/02/27 07:17:36;;;;;;;11.33;8.93;;;-1.30;99.90;;;;;;5081120;28;20503;-70
2023/02/27 07:20:07;;;;;;;8.90;8.00;;;-1.30;99.90;;;;;;5054116;28;21240;-68
2023/02/27 07:22:35;;;;;;;11.53;10.33;;;-1.30;99.90;;;;;;5083104;28;20472;-68
2023/02/27 07:25:03;;;;;;;11.43;9.63;;;-1.20;99.90;;;;;;5053035;28;20764;-69
2023/02/27 07:27:33;;;;;;;12.53;10.50;;;-1.20;99.90;;;;;;5071190;28;20492;-68
2023/02/27 07:30:01;;;;;;;12.93;9.97;;;-1.20;99.90;;;;;;5067869;28;20500;-68
2023/02/27 07:32:29;;;;;;;10.90;9.80;;;-1.10;99.90;;;;;;5062120;28;20476;-69
2023/02/27 07:34:57;;;;;;;10.13;8.97;;;-1.00;99.90;;;;;;5068569;28;20468;-70
2023/02/27 07:37:25;;;;;;;12.70;9.47;;;-0.90;99.90;;;;;;5058252;28;24146;-69
2023/02/27 07:39:55;;;;;;;11.40;8.90;;;-0.80;99.90;;;;;;5054328;28;21077;-69
2023/02/27 07:42:23;;;;;;;8.70;7.83;;;-0.70;99.90;;;;;;5076661;28;20985;-68
2023/02/27 07:44:52;;;;;;;9.87;8.07;;;-0.60;99.90;;;;;;5077323;28;20866;-69
2023/02/27 07:47:20;;;;;;;11.30;9.43;;;-0.60;99.90;;;;;;5060790;28;20495;-69
2023/02/27 07:49:48;;;;;;;10.97;8.43;;;-0.60;99.90;;;;;;5064162;28;20496;-68
2023/02/27 07:52:16;;;;;;;10.10;8.30;;;-0.50;99.90;;;;;;5095611;28;20468;-68
2023/02/27 07:54:44;;;;;;;12.97;9.10;;;-0.50;99.90;;;;;;5080590;28;20486;-68
2023/02/27 07:57:12;;;;;;;9.63;8.73;;;-0.50;99.90;;;;;;5081041;28;20480;-70
2023/02/27 07:59:40;;;;;;;10.17;9.07;;;-0.40;99.90;;;;;;5063632;28;21041;-70
2023/02/27 08:02:10;;;;;;;10.70;9.30;;;-0.30;99.90;;;;;;5070779;28;20467;-68
2023/02/27 08:04:38;;;;;;;10.50;8.23;;;-0.20;99.90;;;;;;5078521;28;20476;-68
2023/02/27 08:07:07;;;;;;;10.23;8.30;;;-0.10;99.90;;;;;;5073998;27;20496;-69
2023/02/27 08:09:35;;;;;;;11.20;8.63;;;-0.10;99.90;;;;;;5099653;28;20491;-67
2023/02/27 08:12:03;;;;;;;10.40;8.70;;;0.00;99.90;;;;;;5101069;28;20463;-68
2023/02/27 08:14:31;;;;;;;15.47;8.87;;;0.10;99.90;;;;;;5098880;27;20464;-67
2023/02/27 08:17:00;;;;;;;9.40;8.60;;;0.10;99.90;;;;;;5081874;27;20494;-68
2023/02/27 08:19:29;;;;;;;11.00;8.90;;;0.20;99.90;;;;;;5077766;27;20474;-70
2023/02/27 08:21:57;;;;;;;15.33;9.87;;;0.30;99.90;;;;;;5074885;27;20464;-70
2023/02/27 08:24:25;;;;;;;10.73;9.70;;;0.40;99.90;;;;;;5078745;27;20468;-72
2023/02/27 08:26:53;;;;;;;16.40;9.80;;;0.50;99.90;;;;;;5069822;27;21052;-67
2023/02/27 08:29:21;;;;;;;9.97;8.93;;;0.60;99.90;;;;;;5097623;28;20536;-68
2023/02/27 08:31:49;;;;;;;13.83;9.47;;;0.60;99.90;;;;;;5081979;27;20471;-69
2023/02/27 08:34:17;;;;;;;12.37;8.53;;;0.70;99.90;;;;;;5072889;27;20560;-67
2023/02/27 08:36:46;;;;;;;13.03;9.40;;;0.80;99.90;;;;;;5088702;27;20479;-68
2023/02/27 08:39:14;;;;;;;12.23;9.27;;;0.90;99.90;;;;;;5092736;27;21270;-68
2023/02/27 08:41:42;;;;;;;9.80;8.17;;;1.00;99.90;;;;;;5092192;28;20488;-70
2023/02/27 08:44:11;;;;;;;8.97;8.07;;;1.10;99.90;;;;;;5099811;27;20460;-68
2023/02/27 08:46:39;;;;;;;14.37;9.03;;;1.10;99.90;;;;;;5090152;28;20486;-67
2023/02/27 08:49:07;;;;;;;10.40;8.50;;;1.20;99.90;;;;;;5100136;28;20475;-68
2023/02/27 08:51:35;;;;;;;10.73;8.03;;;1.30;99.90;;;;;;5100260;28;20500;-69
2023/02/27 08:54:04;;;;;;;10.37;7.40;;;1.40;99.90;;;;;;5095699;28;20982;-68
2023/02/27 08:56:33;;;;;;;10.40;6.67;;;1.50;99.90;;;;;;5093545;28;20869;-71
2023/02/27 08:59:02;;;;;;;7.63;6.10;;;1.60;99.90;;;;;;5093622;27;20464;-74
2023/02/27 09:01:33;;;;;;;7.17;5.60;;;1.70;99.90;;;;;;5099631;28;20479;-68
2023/02/27 09:04:02;;;;;;;7.93;5.83;;;1.80;99.90;;;;;;5091736;27;20479;-68
2023/02/27 09:06:31;;;;;;;7.80;4.77;;;1.80;99.90;;;;;;5094590;27;20467;-67
2023/02/27 09:08:59;;;;;;;9.30;5.27;;;2.00;99.90;;;;;;5102871;28;21042;-67
2023/02/27 09:11:29;;;;;;;9.17;5.47;;;2.00;99.90;;;;;;5100599;28;20497;-67
2023/02/27 09:13:57;;;;;;;5.57;4.17;;;2.10;99.90;;;;;;5085607;28;20468;-69
2023/02/27 09:16:25;;;;;;;5.63;4.40;;;2.20;99.90;;;;;;5090840;28;20836;-67
2023/02/27 09:18:54;;;;;;;5.70;3.90;;;2.30;99.90;;;;;;5083357;28;20506;-67
2023/02/27 09:21:23;;;;;;;5.80;3.57;;;2.40;99.90;;;;;;5084208;27;20488;-67
2023/02/27 09:23:52;;;;;;;5.87;4.43;;;2.50;99.90;;;;;;5082518;27;20476;-67
2023/02/27 09:26:20;;;;;;;8.80;5.47;;;2.60;99.90;;;;;;5074298;28;20471;-68
2023/02/27 09:29:03;;;;;;;5.53;5.00;;;2.70;99.90;;;;;;5085591;28;20492;-69
2023/02/27 09:31:31;;;;;;;13.53;12.10;;;2.80;99.90;;;;;;5099183;28;20570;-68
2023/02/27 09:34:01;;;;;;;11.40;9.00;;;2.80;99.90;;;;;;5086675;28;20464;-67
2023/02/27 09:36:29;;;;;;;5.67;3.50;;;3.00;99.90;;;;;;5076810;28;20476;-69
2023/02/27 09:38:58;;;;;;;3.50;2.47;;;3.00;99.90;;;;;;5086313;28;20496;-67
2023/02/27 09:41:49;;;;;;;9.43;6.10;;;3.10;99.90;;;;;;5076791;27;20560;-68
2023/02/27 09:44:33;;;;;;;15.00;13.70;;;3.20;99.90;;;;;;5078021;28;20541;-68
2023/02/27 09:47:18;;;;;;;12.90;11.20;;;3.40;99.90;;;;;;5064785;28;20520;-69
2023/02/27 09:49:58;;;;;;;6.10;5.50;;;3.40;99.90;;;;;;5062281;28;20492;-67
2023/02/27 09:52:28;;;;;;;5.83;5.30;;;3.50;99.90;;;;;;5083356;28;20472;-68
2023/02/27 09:54:55;;;;;;;7.60;6.90;;;3.60;99.90;;;;;;5075619;27;20541;-67
2023/02/27 09:57:34;;;;;;;3.37;2.90;;;3.70;99.90;;;;;;5092507;28;20475;-67
2023/02/27 10:00:13;;;;;;;4.97;4.33;;;3.80;99.90;;;;;;5092013;27;20491;-67
2023/02/27 10:02:54;;;;;;;5.70;3.00;;;3.90;99.90;;;;;;5082767;27;20474;-69
2023/02/27 10:05:32;;;;;;;7.03;4.60;;;4.00;99.90;;;;;;5076653;27;21053;-69
2023/02/27 10:08:08;;;;;;;7.60;6.90;;;4.20;99.90;;;;;;5072896;27;20671;-68
2023/02/27 10:10:40;;;;;;;6.17;5.60;;;4.30;99.90;;;;;;5077588;28;20503;-68
2023/02/27 10:13:33;;;;;;;4.87;4.37;;;4.40;99.90;;;;;;5085009;28;20456;-67
2023/02/27 10:16:04;;;;;;;9.70;8.70;;;4.60;99.90;;;;;;5086755;28;20469;-68
2023/02/27 10:18:37;;;;;;;3.47;3.13;;;4.70;99.90;;;;;;5081368;28;20480;-69
2023/02/27 10:21:10;;;;;;;4.97;2.53;;;4.90;99.90;;;;;;5076199;27;20494;-68
2023/02/27 10:23:42;;;;;;;3.60;2.50;;;5.10;99.90;;;;;;5079378;28;20486;-69
2023/02/27 10:26:18;;;;;;;7.80;6.10;;;5.20;99.90;;;;;;5080119;28;20480;-69
2023/02/27 10:28:46;;;;;;;7.60;6.93;;;5.40;99.90;;;;;;5081499;28;20487;-68
2023/02/27 10:31:22;;;;;;;5.70;3.77;;;5.50;99.90;;;;;;5082243;28;20614;-68
2023/02/27 10:33:52;;;;;;;5.60;4.50;;;5.70;99.90;;;;;;5074497;27;20565;-68
2023/02/27 10:36:21;;;;;;;11.77;10.60;;;5.80;99.90;;;;;;5089938;27;20464;-68
2023/02/27 10:39:06;;;;;;;12.17;10.93;;;5.90;99.90;;;;;;5081976;27;21565;-67
2023/02/27 10:41:36;;;;;;;15.43;11.80;;;6.00;99.90;;;;;;5079700;27;21017;-68
2023/02/27 10:44:05;;;;;;;8.73;7.83;;;6.10;99.90;;;;;;5095109;28;20470;-70
2023/02/27 10:46:37;;;;;;;7.23;4.77;;;6.10;99.90;;;;;;5089267;28;20470;-69
2023/02/27 10:49:14;;;;;;;4.37;3.10;;;6.20;99.90;;;;;;5093576;28;20488;-69
2023/02/27 10:51:46;;;;;;;3.80;3.10;;;6.30;99.90;;;;;;5091869;28;20587;-68
2023/02/27 10:54:25;;;;;;;2.70;2.50;;;6.40;99.90;;;;;;5086093;28;20471;-69
2023/02/27 10:56:55;;;;;;;5.10;3.00;;;6.50;99.90;;;;;;5090171;28;20774;-69
2023/02/27 10:59:25;;;;;;;4.67;2.83;;;6.70;99.90;;;;;;5081076;28;20505;-66
2023/02/27 11:01:56;;;;;;;3.27;2.73;;;6.70;99.90;;;;;;5091455;28;20542;-67
2023/02/27 11:04:31;;;;;;;4.10;3.40;;;6.80;99.90;;;;;;5092186;28;20461;-67
2023/02/27 11:07:01;;;;;;;6.10;2.90;;;6.90;99.90;;;;;;5085718;28;20549;-69
2023/02/27 11:09:32;;;;;;;3.50;2.70;;;7.00;99.90;;;;;;5093870;28;20483;-66
2023/02/27 11:12:20;;;;;;;4.23;2.97;;;7.00;99.90;;;;;;5084458;27;20480;-67
2023/02/27 11:14:51;;;;;;;4.13;2.57;;;7.00;99.90;;;;;;5080375;27;20469;-68
2023/02/27 11:17:31;;;;;;;3.20;2.33;;;7.00;99.90;;;;;;5068963;28;20839;-66
2023/02/27 11:20:01;;;;;;;7.60;2.10;;;7.00;99.90;;;;;;5081200;28;20491;-67
2023/02/27 11:22:30;;;;;;;4.27;2.37;;;7.10;99.90;;;;;;5074405;28;20497;-66
2023/02/27 11:25:18;;;;;;;4.33;2.13;;;7.20;99.90;;;;;;5066226;27;20479;-67
2023/02/27 11:27:47;;;;;;;2.30;1.83;;;7.20;99.90;;;;;;5072399;28;21119;-66
2023/02/27 11:30:25;;;;;;;2.40;1.70;;;7.40;99.90;;;;;;5079165;28;20511;-67
2023/02/27 11:32:57;;;;;;;3.27;1.60;;;7.40;99.90;;;;;;5064789;28;20861;-67
2023/02/27 11:35:28;;;;;;;4.03;2.10;;;7.50;99.90;;;;;;5087094;28;21046;-67
2023/02/27 11:38:00;;;;;;;2.73;1.57;;;7.50;99.90;;;;;;5081139;28;20484;-66
2023/02/27 11:40:31;;;;;;;1.93;1.60;;;7.50;99.90;;;;;;5088995;28;20494;-69
2023/02/27 11:43:04;;;;;;;3.10;1.70;;;7.40;99.90;;;;;;5080389;28;20468;-67
2023/02/27 11:45:36;;;;;;;2.67;1.80;;;7.40;99.90;;;;;;5080612;28;20490;-68
2023/02/27 11:48:29;;;;;;;2.57;1.60;;;7.40;99.90;;;;;;5058250;28;21804;-67
2023/02/27 11:51:20;;;;;;;3.27;2.03;;;7.30;99.90;;;;;;5086578;28;21006;-68
2023/02/27 11:54:08;;;;;;;5.00;2.20;;;7.40;99.90;;;;;;5074827;28;20462;-68
2023/02/27 11:56:39;;;;;;;2.60;1.80;;;7.40;99.90;;;;;;5063824;28;21111;-69
2023/02/27 11:59:16;;;;;;;2.67;2.00;;;7.40;99.90;;;;;;5056720;28;20471;-69
2023/02/27 12:01:51;;;;;;;4.63;2.00;;;7.50;99.90;;;;;;5061904;28;20491;-67
2023/02/27 12:04:26;;;;;;;5.80;4.07;;;7.60;99.90;;;;;;5086489;28;20460;-67
2023/02/27 12:07:01;;;;;;;12.37;9.70;;;7.80;99.90;;;;;;5083615;28;20486;-68
2023/02/27 12:09:38;;;;;;;4.83;4.33;;;7.90;99.90;;;;;;5069662;28;20479;-67
2023/02/27 12:12:15;;;;;;;5.90;2.70;;;8.00;99.90;;;;;;5060535;28;20492;-67
2023/02/27 12:14:49;;;;;;;4.77;3.27;;;8.20;99.90;;;;;;5073973;28;21124;-69
2023/02/27 12:17:23;;;;;;;3.87;3.40;;;8.40;99.90;;;;;;5053208;28;21116;-68
2023/02/27 12:20:15;;;;;;;4.13;3.10;;;8.60;99.90;;;;;;5067741;28;20491;-67
2023/02/27 12:22:45;;;;;;;4.60;2.80;;;9.10;99.90;;;;;;5061885;28;20465;-67
2023/02/27 12:25:26;;;;;;;4.03;2.77;;;9.90;99.90;;;;;;5058035;28;21466;-69
2023/02/27 12:28:01;;;;;;;3.60;2.30;;;11.20;99.90;;;;;;5079188;28;20494;-66
2023/02/27 12:30:36;;;;;;;2.47;1.80;;;12.50;86.60;;;;;;5073589;28;20491;-67
2023/02/27 12:33:13;;;;;;;2.07;1.67;;;13.40;61.40;;;;;;5082613;28;20487;-68
2023/02/27 12:35:43;;;;;;;2.17;1.33;;;13.60;60.20;;;;;;5080909;28;20974;-68
2023/02/27 12:38:13;;;;;;;2.10;1.30;;;14.10;48.80;;;;;;5083303;28;20574;-67
2023/02/27 12:40:51;;;;;;;2.53;1.70;;;14.10;48.60;;;;;;5082823;28;20495;-67
2023/02/27 12:43:27;;;;;;;1.73;1.17;;;14.70;43.80;;;;;;5071174;28;20487;-69
2023/02/27 12:46:37;;;;;;;1.87;1.27;;;15.10;42.50;;;;;;5076489;27;20463;-71
2023/02/27 12:49:20;;;;;;;2.60;2.40;;;16.70;40.90;;;;;;5076374;27;20976;-68
2023/02/27 12:52:01;;;;;;;2.13;1.93;;;18.90;37.80;;;;;;5082237;27;20487;-71
2023/02/27 12:54:46;;;;;;;3.20;1.60;;;20.60;33.80;;;;;;5086300;28;21012;-70
2023/02/27 12:57:31;;;;;;;1.20;0.93;;;21.70;28.90;;;;;;5096074;28;20479;-68
2023/02/27 13:00:14;;;;;;;1.70;1.30;;;22.50;27.50;;;;;;5083751;28;20483;-68
2023/02/27 13:03:04;;;;;;;1.30;1.20;;;23.50;27.10;;;;;;5092919;27;20839;-68
2023/02/27 13:05:41;;;;;;;2.30;1.10;;;23.70;26.40;;;;;;5086449;28;21665;-70
2023/02/27 13:08:20;;;;;;;1.40;1.20;;;23.10;26.20;;;;;;5092536;28;20485;-70
2023/02/27 13:10:51;;;;;;;1.40;1.20;;;22.10;25.70;;;;;;5095232;28;20495;-69
2023/02/27 13:13:27;;;;;;;3.07;1.50;;;21.30;26.70;;;;;;5095225;27;20463;-69
2023/02/27 13:15:59;;;;;;;1.90;1.20;;;22.00;27.40;;;;;;5092507;28;21099;-69
2023/02/27 13:18:37;;;;;;;1.90;1.50;;;22.60;27.20;;;;;;5088968;28;20502;-69
2023/02/27 13:21:12;;;;;;;2.00;1.40;;;21.90;26.30;;;;;;5092535;28;20484;-71